Time;durP1;ratioP1;P1;durP2;ratioP2;P2;SDS_P1;SDS_P2;PMS_P1;PMS_P2;Temp;Humidity;BMP_temperature;BMP_pressure;BME280_temperature;BME280_humidity;BME280_pressure;Samples;Min_cycle;Max_cycle;Signal;HPM_P1;HPM_P2
2023/12/14 00:01:26;;;;;;;;;5.25;4.00;;;;;11.14;73.40;100615.59;5066089;28;45413;-74
2023/12/14 00:03:52;;;;;;;;;5.67;3.00;;;;;11.15;73.68;100623.47;5067555;28;45490;-74
2023/12/14 00:06:17;;;;;;;;;9.00;3.25;;;;;11.05;73.23;100626.97;5070981;28;45351;-73
2023/12/14 00:08:44;;;;;;;;;4.00;3.33;;;;;10.89;73.31;100592.06;5054443;28;45340;-72
2023/12/14 00:11:11;;;;;;;;;4.33;3.00;;;;;11.09;73.22;100636.56;5044729;28;45498;-75
2023/12/14 00:13:40;;;;;;;;;2.25;2.25;;;;;11.05;73.62;100629.56;5050067;28;45488;-76
2023/12/14 00:16:07;;;;;;;;;3.00;2.00;;;;;10.91;73.18;100610.38;5054521;28;45899;-74
2023/12/14 00:18:33;;;;;;;;;4.50;1.50;;;;;11.04;73.31;100640.94;5044735;28;45587;-75
2023/12/14 00:21:06;;;;;;;;;3.75;1.25;;;;;10.90;72.69;100620.00;5057239;28;45405;-76
2023/12/14 00:23:39;;;;;;;;;3.00;2.00;;;;;10.92;73.14;100652.31;5055612;28;46270;-73
2023/12/14 00:26:05;;;;;;;;;5.00;2.25;;;;;10.95;73.10;100657.53;5057679;28;45423;-74
2023/12/14 00:28:30;;;;;;;;;3.67;3.00;;;;;10.92;72.76;100647.06;5057756;28;45275;-74
2023/12/14 00:30:56;;;;;;;;;5.75;3.50;;;;;10.79;72.87;100642.72;5057563;28;45811;-73
2023/12/14 00:33:22;;;;;;;;;3.33;2.00;;;;;10.96;72.86;100674.13;5050095;28;46407;-75
2023/12/14 00:35:48;;;;;;;;;3.00;3.00;;;;;10.91;72.33;100673.28;5053924;28;45644;-74
2023/12/14 00:38:14;;;;;;;;;3.25;2.50;;;;;10.93;72.86;100682.88;5059292;28;45246;-74
2023/12/14 00:40:39;;;;;;;;;3.00;3.00;;;;;10.93;72.71;100684.63;5046427;28;45386;-74
2023/12/14 00:43:05;;;;;;;;;3.00;2.00;;;;;10.94;72.85;100695.13;5056892;28;45556;-76
2023/12/14 00:45:30;;;;;;;;;4.00;3.00;;;;;10.90;72.84;100695.13;5049290;28;45628;-72
2023/12/14 00:47:56;;;;;;;;;2.50;2.00;;;;;10.86;73.15;100696.84;5056600;28;45356;-73
2023/12/14 00:50:31;;;;;;;;;2.25;2.25;;;;;10.91;72.35;100712.56;5060278;28;45394;-73
2023/12/14 00:52:57;;;;;;;;;4.00;3.25;;;;;10.91;72.38;100715.19;5063289;28;45492;-76
2023/12/14 00:55:22;;;;;;;;;2.75;2.75;;;;;10.89;72.60;100712.59;5056947;28;45791;-74
2023/12/14 00:57:48;;;;;;;;;2.75;2.25;;;;;10.88;73.03;100728.31;5055053;28;45442;-75
2023/12/14 01:00:14;;;;;;;;;2.00;2.00;;;;;10.72;72.92;100702.09;5056398;28;45474;-74
2023/12/14 01:02:39;;;;;;;;;6.25;1.25;;;;;10.80;72.79;100729.19;5056117;28;45455;-73
2023/12/14 01:05:06;;;;;;;;;2.00;2.00;;;;;10.81;73.54;100732.66;5057841;28;45772;-73
2023/12/14 01:07:31;;;;;;;;;1.33;1.33;;;;;9.60;73.01;100536.97;5052717;28;45472;-74
2023/12/14 01:09:57;;;;;;;;;1.00;1.00;;;;;10.23;73.08;100644.41;5057018;28;45459;-74
2023/12/14 01:12:23;;;;;;;;;1.33;1.00;;;;;10.63;73.26;100717.81;5056615;28;48005;-73
2023/12/14 01:14:48;;;;;;;;;1.00;1.00;;;;;10.76;73.39;100743.13;5057254;28;45479;-74
2023/12/14 01:17:14;;;;;;;;;1.67;0.67;;;;;10.17;73.34;100658.31;5055677;28;45371;-74
2023/12/14 01:19:41;;;;;;;;;1.50;1.00;;;;;10.40;73.66;100705.53;5056926;28;45364;-73
2023/12/14 01:22:07;;;;;;;;;1.00;1.00;;;;;9.68;73.08;100590.19;5057217;28;45376;-72
2023/12/14 01:24:32;;;;;;;;;2.33;0.00;;;;;10.36;73.20;100706.38;5056288;28;45536;-75
2023/12/14 01:26:58;;;;;;;;;2.00;1.00;;;;;10.60;73.44;100752.69;5042437;28;45523;-73
2023/12/14 01:29:24;;;;;;;;;1.00;1.00;;;;;10.26;73.37;100699.34;5057132;28;45508;-74
2023/12/14 01:31:50;;;;;;;;;1.33;0.33;;;;;10.72;73.38;100782.41;5057241;28;46527;-75
2023/12/14 01:34:15;;;;;;;;;0.00;0.00;;;;;10.72;73.31;100796.38;5058826;28;45406;-75
2023/12/14 01:36:41;;;;;;;;;0.00;0.00;;;;;10.35;73.33;100733.47;5058559;28;45416;-74
2023/12/14 01:39:07;;;;;;;;;1.00;1.00;;;;;10.68;73.31;100789.41;5058261;28;45495;-73
2023/12/14 01:41:33;;;;;;;;;2.00;0.00;;;;;10.17;73.15;100709.81;5056379;28;47820;-73
2023/12/14 01:43:59;;;;;;;;;0.33;0.33;;;;;10.60;73.54;100797.22;5057660;28;45349;-74
2023/12/14 01:46:25;;;;;;;;;1.00;1.00;;;;;10.28;73.48;100742.16;5055729;28;45386;-73
2023/12/14 01:48:52;;;;;;;;;2.00;0.00;;;;;10.45;73.68;100781.47;5057008;28;45373;-73
2023/12/14 01:51:18;;;;;;;;;2.00;0.00;;;;;10.53;73.65;100799.84;5055177;28;46884;-72
2023/12/14 01:53:44;;;;;;;;;1.00;1.00;;;;;10.65;73.60;100814.72;5056944;28;45369;-72
2023/12/14 01:56:10;;;;;;;;;2.67;1.00;;;;;10.65;73.52;100826.06;5058136;28;45471;-73
2023/12/14 01:58:36;;;;;;;;;1.00;1.00;;;;;10.14;74.25;100755.16;5057445;28;45516;-72
2023/12/14 02:01:36;;;;;;;;;0.00;0.00;;;;;10.64;73.65;100839.16;5049828;28;45489;-76
2023/12/14 02:04:08;;;;;;;;;0.67;0.67;;;;;10.50;73.70;100826.88;5052705;28;45387;-73
2023/12/14 02:06:34;;;;;;;;;0.67;0.00;;;;;10.61;73.48;100851.38;5056259;28;45657;-72
2023/12/14 02:08:59;;;;;;;;;3.00;1.00;;;;;10.25;73.88;100793.56;5055972;28;45475;-73
2023/12/14 02:11:25;;;;;;;;;0.00;0.00;;;;;10.43;73.35;100839.97;5053875;28;45486;-72
2023/12/14 02:13:50;;;;;;;;;0.00;0.00;;;;;10.33;74.47;100829.44;5042965;28;45493;-74
2023/12/14 02:16:21;;;;;;;;;0.00;0.00;;;;;10.53;74.01;100874.03;5055999;28;45404;-73
2023/12/14 02:18:47;;;;;;;;;2.00;0.33;;;;;10.26;74.36;100827.63;5042771;28;45434;-73
2023/12/14 02:21:13;;;;;;;;;0.00;0.00;;;;;10.48;74.42;100867.91;5056947;28;45612;-73
2023/12/14 02:23:45;;;;;;;;;1.33;1.00;;;;;10.48;74.47;100881.00;5056123;28;45523;-70
2023/12/14 02:26:14;;;;;;;;;0.67;0.67;;;;;10.56;74.60;100889.78;5055529;28;45518;-73
2023/12/14 02:28:40;;;;;;;;;0.00;0.00;;;;;10.56;75.40;100895.00;5054192;28;45569;-72
2023/12/14 02:31:06;;;;;;;;;0.67;0.67;;;;;10.56;74.45;100891.53;5048414;28;45932;-73
2023/12/14 02:33:32;;;;;;;;;1.00;1.00;;;;;10.48;74.66;100878.38;5039911;28;45401;-73
2023/12/14 02:35:57;;;;;;;;;1.00;1.00;;;;;10.47;74.63;100881.88;5047211;28;45584;-72
2023/12/14 02:38:23;;;;;;;;;1.00;1.00;;;;;10.46;74.83;100887.09;5040992;28;46743;-75
2023/12/14 02:40:52;;;;;;;;;0.00;0.00;;;;;10.57;74.97;100902.00;5044803;28;46551;-74
2023/12/14 02:43:18;;;;;;;;;2.00;0.00;;;;;10.55;74.40;100898.50;5048654;28;45352;-72
2023/12/14 02:45:45;;;;;;;;;0.00;0.00;;;;;10.59;74.55;100908.13;5053193;28;45282;-72
2023/12/14 02:48:12;;;;;;;;;1.00;0.00;;;;;10.50;74.51;100905.44;5054886;28;45753;-73
2023/12/14 02:50:38;;;;;;;;;1.67;1.00;;;;;10.31;74.16;100869.56;5055890;28;45952;-74
2023/12/14 02:53:03;;;;;;;;;0.00;0.00;;;;;10.59;74.45;100922.97;5055358;28;45400;-72
2023/12/14 02:55:29;;;;;;;;;1.00;1.00;;;;;10.50;73.89;100896.72;5055224;28;45551;-73
2023/12/14 02:57:55;;;;;;;;;0.00;0.00;;;;;10.52;74.57;100922.06;5054726;28;45503;-73
2023/12/14 03:00:21;;;;;;;;;0.00;0.00;;;;;10.34;74.21;100891.41;5067014;28;45718;-73
2023/12/14 03:02:47;;;;;;;;;3.00;1.00;;;;;10.21;74.15;100871.22;5055102;28;45507;-72
2023/12/14 03:05:14;;;;;;;;;1.00;1.00;;;;;10.55;74.48;100944.75;5060083;28;45396;-72
2023/12/14 03:07:39;;;;;;;;;0.33;0.33;;;;;10.54;74.67;100943.88;5060715;28;45192;-72
2023/12/14 03:10:05;;;;;;;;;0.00;0.00;;;;;10.56;74.00;100946.53;5045871;28;46145;-72
2023/12/14 03:12:31;;;;;;;;;1.33;0.00;;;;;10.55;73.81;100958.72;5045764;28;45334;-74
2023/12/14 03:14:56;;;;;;;;;2.00;1.00;;;;;10.58;74.27;100960.47;5059437;28;45429;-73
2023/12/14 03:17:23;;;;;;;;;0.00;0.00;;;;;10.51;74.11;100948.22;5051243;28;46654;-74
2023/12/14 03:19:49;;;;;;;;;0.00;0.00;;;;;10.57;74.13;100956.13;5054478;28;46154;-72
2023/12/14 03:22:15;;;;;;;;;1.00;1.00;;;;;10.38;74.28;100929.81;5072047;28;45519;-71
2023/12/14 03:24:42;;;;;;;;;0.00;0.00;;;;;10.32;73.92;100936.75;5073598;28;45226;-73
2023/12/14 03:27:08;;;;;;;;;0.00;0.00;;;;;10.57;73.85;100983.19;5061726;28;45460;-73
2023/12/14 03:29:34;;;;;;;;;0.00;0.00;;;;;10.43;74.27;100957.78;5054318;28;45713;-72
2023/12/14 03:32:00;;;;;;;;;0.00;0.00;;;;;10.53;73.97;100977.91;5059133;28;45457;-73
2023/12/14 03:34:26;;;;;;;;;0.00;0.00;;;;;10.34;73.83;100955.97;5060771;28;45456;-73
2023/12/14 03:36:52;;;;;;;;;0.00;0.00;;;;;10.53;73.84;100991.88;5062751;28;45438;-74
2023/12/14 03:39:18;;;;;;;;;0.33;0.33;;;;;10.54;74.35;100992.78;5062042;28;46246;-72
2023/12/14 03:41:44;;;;;;;;;1.00;0.00;;;;;9.88;73.85;100884.97;5058384;28;45506;-73
2023/12/14 03:44:10;;;;;;;;;0.67;0.67;;;;;10.56;74.00;101010.25;5040271;28;45328;-73
2023/12/14 03:46:36;;;;;;;;;0.67;0.67;;;;;10.56;74.31;101005.03;5058178;28;45501;-73
2023/12/14 03:49:03;;;;;;;;;1.33;1.00;;;;;10.55;73.80;101016.34;5058406;28;46086;-73
2023/12/14 03:51:29;;;;;;;;;1.00;1.00;;;;;10.55;74.03;101008.50;5059189;28;45413;-71
2023/12/14 03:53:55;;;;;;;;;0.00;0.00;;;;;10.20;73.69;100974.16;5058712;28;45350;-73
2023/12/14 03:56:20;;;;;;;;;1.00;1.00;;;;;10.55;74.51;101028.56;5059702;28;45288;-73
2023/12/14 03:58:45;;;;;;;;;1.67;1.00;;;;;10.55;74.41;101028.56;5050085;28;45523;-73
2023/12/14 04:01:19;;;;;;;;;1.33;1.33;;;;;10.32;74.55;101000.50;5057919;28;45450;-74
2023/12/14 04:03:45;;;;;;;;;3.00;1.00;;;;;10.34;74.50;101008.34;5057921;28;45517;-74
2023/12/14 04:06:14;;;;;;;;;1.00;1.00;;;;;10.54;74.43;101048.66;5053158;28;45555;-74
2023/12/14 04:08:41;;;;;;;;;0.33;0.33;;;;;10.48;74.28;101034.63;5048533;28;46625;-74
2023/12/14 04:11:07;;;;;;;;;2.00;1.00;;;;;10.57;74.58;101051.28;5044773;28;45747;-73
2023/12/14 04:13:36;;;;;;;;;1.00;1.00;;;;;10.50;74.48;101040.75;5058541;28;45460;-73
2023/12/14 04:16:03;;;;;;;;;2.00;2.00;;;;;10.57;74.24;101055.66;5046847;28;45603;-73
2023/12/14 04:18:32;;;;;;;;;4.50;2.75;;;;;10.56;74.45;101070.50;5056763;28;46409;-74
2023/12/14 04:20:57;;;;;;;;;2.75;2.00;;;;;10.54;74.60;101069.59;5038114;28;45498;-74
2023/12/14 04:23:23;;;;;;;;;2.33;1.33;;;;;10.55;74.11;101078.34;5048618;28;45302;-73
2023/12/14 04:25:48;;;;;;;;;4.67;1.00;;;;;10.40;74.62;101055.53;5051533;28;45360;-73
2023/12/14 04:28:14;;;;;;;;;2.67;2.00;;;;;10.43;74.28;101066.03;5057319;28;45555;-73
2023/12/14 04:30:40;;;;;;;;;2.00;1.50;;;;;10.54;74.24;101095.81;5057858;28;45314;-74
2023/12/14 04:33:06;;;;;;;;;2.00;1.33;;;;;10.55;74.16;101101.91;5057981;28;45578;-73
2023/12/14 04:35:36;;;;;;;;;5.33;3.00;;;;;9.72;74.43;100963.31;5058329;28;45168;-73
2023/12/14 04:38:02;;;;;;;;;2.00;1.33;;;;;10.40;74.41;101093.06;5053929;28;47323;-73
2023/12/14 04:40:28;;;;;;;;;2.00;2.00;;;;;10.55;74.07;101117.63;5056126;28;45967;-72
2023/12/14 04:42:53;;;;;;;;;5.67;3.00;;;;;10.23;73.90;101078.03;5056224;28;45498;-72
2023/12/14 04:45:19;;;;;;;;;4.00;4.00;;;;;9.95;73.96;101034.16;5058065;28;45396;-72
2023/12/14 04:47:44;;;;;;;;;2.50;2.00;;;;;10.42;73.87;101106.19;5056831;28;46559;-73
2023/12/14 04:50:10;;;;;;;;;4.50;3.50;;;;;10.36;74.17;101113.97;5058243;28;45519;-73
2023/12/14 04:52:36;;;;;;;;;5.75;4.00;;;;;10.07;74.29;101077.91;5058887;28;45329;-73
2023/12/14 04:55:02;;;;;;;;;4.25;3.25;;;;;10.47;74.39;101153.34;5046914;28;45452;-73
2023/12/14 04:57:28;;;;;;;;;4.75;3.00;;;;;10.47;74.08;101156.84;5055446;28;45424;-72
2023/12/14 04:59:53;;;;;;;;;8.25;3.25;;;;;10.42;74.52;101153.31;5057413;28;45538;-73
2023/12/14 05:02:19;;;;;;;;;6.75;3.00;;;;;10.48;74.56;101162.97;5042871;28;45435;-72
2023/12/14 05:04:45;;;;;;;;;4.50;3.75;;;;;10.45;74.10;101161.19;5047916;28;45556;-73
2023/12/14 05:07:10;;;;;;;;;3.00;3.00;;;;;10.53;74.52;101177.84;5052186;28;45466;-75
2023/12/14 05:09:36;;;;;;;;;3.50;3.00;;;;;10.55;74.19;101185.72;5050105;28;45484;-74
2023/12/14 05:12:01;;;;;;;;;3.50;3.00;;;;;10.54;74.48;101194.44;5052274;28;45471;-73
2023/12/14 05:14:30;;;;;;;;;4.00;4.00;;;;;10.54;74.34;101194.44;5056977;28;45577;-73
2023/12/14 05:16:58;;;;;;;;;7.50;3.25;;;;;10.54;74.71;101210.16;5042320;28;47013;-72
2023/12/14 05:19:24;;;;;;;;;4.33;3.00;;;;;10.06;74.30;101115.41;5057021;28;45357;-72
2023/12/14 05:21:49;;;;;;;;;7.50;3.50;;;;;10.54;73.81;101204.94;5056868;28;45930;-73
2023/12/14 05:24:15;;;;;;;;;3.67;3.67;;;;;10.54;74.19;101211.03;5057372;28;45440;-74
2023/12/14 05:26:40;;;;;;;;;9.75;5.00;;;;;10.56;73.79;101224.16;5056758;28;46048;-72
2023/12/14 05:29:06;;;;;;;;;2.50;2.50;;;;;10.54;73.47;101218.03;5057745;28;45424;-72
2023/12/14 05:31:31;;;;;;;;;5.00;3.00;;;;;10.43;73.92;101202.19;5052342;28;45411;-73
2023/12/14 05:34:02;;;;;;;;;5.25;4.50;;;;;10.42;74.31;101215.25;5061960;28;45400;-73
2023/12/14 05:36:28;;;;;;;;;6.75;5.00;;;;;10.10;73.91;101156.44;5056971;28;45402;-74
2023/12/14 05:38:54;;;;;;;;;6.00;4.25;;;;;10.57;73.95;101244.25;5046157;28;45509;-73
2023/12/14 05:41:19;;;;;;;;;8.50;4.75;;;;;10.53;73.59;101232.84;5053496;28;45414;-74
2023/12/14 05:43:45;;;;;;;;;4.00;2.75;;;;;10.44;73.62;101218.78;5057093;28;45376;-73
2023/12/14 05:46:23;;;;;;;;;5.75;3.00;;;;;10.10;73.78;101172.13;5055002;28;46241;-73
2023/12/14 05:48:50;;;;;;;;;4.75;3.50;;;;;10.53;73.15;101247.69;5042191;28;45338;-72
2023/12/14 05:51:32;;;;;;;;;7.25;3.50;;;;;10.58;73.79;101259.06;5056654;28;45466;-74
2023/12/14 05:53:58;;;;;;;;;6.00;3.75;;;;;10.59;73.40;101255.63;5055780;28;45520;-74
2023/12/14 05:56:29;;;;;;;;;8.75;4.75;;;;;10.52;73.16;101253.78;5049768;28;45474;-74
2023/12/14 05:58:55;;;;;;;;;6.00;5.00;;;;;10.53;73.47;101261.66;5039604;28;45503;-73
2023/12/14 06:01:21;;;;;;;;;5.25;2.75;;;;;10.35;73.78;101235.28;5065069;28;45278;-73
2023/12/14 06:03:47;;;;;;;;;4.25;3.00;;;;;10.55;73.72;101285.25;5064186;28;45241;-74
2023/12/14 06:06:15;;;;;;;;;4.00;3.25;;;;;10.25;73.32;101222.91;5060212;28;47080;-74
2023/12/14 06:08:41;;;;;;;;;5.50;4.00;;;;;10.53;73.04;101281.72;5060319;28;45383;-74
2023/12/14 06:11:07;;;;;;;;;7.25;3.50;;;;;10.50;73.23;101279.97;5058639;28;45325;-74
2023/12/14 06:13:34;;;;;;;;;8.50;4.75;;;;;10.36;73.44;101260.59;5056672;28;45449;-73
2023/12/14 06:16:00;;;;;;;;;3.00;3.00;;;;;10.50;73.49;101289.56;5059334;28;45677;-73
2023/12/14 06:18:27;;;;;;;;;6.00;4.00;;;;;10.24;73.97;101260.44;5056710;28;45382;-73
2023/12/14 06:20:53;;;;;;;;;3.50;3.25;;;;;10.30;73.68;101268.41;5061463;28;45542;-73
2023/12/14 06:23:18;;;;;;;;;8.50;3.50;;;;;10.05;74.18;101241.00;5062255;28;45351;-75
2023/12/14 06:25:44;;;;;;;;;3.50;3.50;;;;;9.92;74.06;101224.28;5061692;28;46463;-73
2023/12/14 06:28:09;;;;;;;;;5.75;4.25;;;;;9.94;73.92;101230.38;5060331;28;45399;-75
2023/12/14 06:30:35;;;;;;;;;8.33;5.00;;;;;10.32;73.60;101305.94;5058537;28;45231;-74
2023/12/14 06:33:02;;;;;;;;;4.75;4.00;;;;;10.46;73.90;101327.03;5058700;28;45412;-74
2023/12/14 06:35:30;;;;;;;;;4.00;3.75;;;;;10.56;73.89;101353.38;5058254;28;46503;-74
2023/12/14 06:37:56;;;;;;;;;6.50;6.00;;;;;10.56;73.60;101356.00;5059552;28;45269;-75
2023/12/14 06:40:21;;;;;;;;;7.00;4.25;;;;;10.28;73.28;101325.97;5070291;28;45317;-74
2023/12/14 06:42:47;;;;;;;;;5.75;4.00;;;;;10.31;73.62;101341.72;5072685;28;44793;-73
2023/12/14 06:45:16;;;;;;;;;7.25;2.75;;;;;10.37;73.72;101344.41;5069150;28;46083;-73
2023/12/14 06:47:43;;;;;;;;;4.00;4.00;;;;;10.39;73.02;101365.38;5061893;28;45655;-73
2023/12/14 06:50:10;;;;;;;;;6.00;3.50;;;;;10.36;73.52;101366.22;5049061;28;45474;-73
2023/12/14 06:52:36;;;;;;;;;3.25;3.00;;;;;9.68;72.68;101244.03;5054829;28;45297;-74
2023/12/14 06:55:01;;;;;;;;;3.25;2.00;;;;;10.42;72.84;101390.72;5063966;28;45543;-74
2023/12/14 06:57:28;;;;;;;;;5.00;2.25;;;;;10.54;73.03;101411.84;5057556;28;45412;-72
2023/12/14 06:59:54;;;;;;;;;5.75;3.00;;;;;10.53;73.02;101418.81;5059261;28;45245;-74
2023/12/14 07:02:20;;;;;;;;;7.00;4.50;;;;;10.35;73.02;101392.41;5060413;28;45329;-75
2023/12/14 07:04:46;;;;;;;;;3.75;2.00;;;;;10.53;72.68;101438.88;5060776;28;45375;-74
2023/12/14 07:07:12;;;;;;;;;2.00;2.00;;;;;10.36;72.32;101410.72;5060496;28;45518;-74
2023/12/14 07:09:38;;;;;;;;;3.00;2.25;;;;;10.38;73.09;101416.88;5060872;28;45452;-74
2023/12/14 07:12:04;;;;;;;;;2.50;2.00;;;;;10.37;73.16;101427.34;5060578;28;45447;-75
2023/12/14 07:14:29;;;;;;;;;3.50;3.00;;;;;10.52;73.04;101451.09;5058705;28;45971;-74
2023/12/14 07:16:55;;;;;;;;;6.25;2.50;;;;;10.44;73.02;101431.81;5059144;28;45428;-75
2023/12/14 07:19:20;;;;;;;;;5.67;3.67;;;;;10.46;72.63;101437.91;5058758;28;45506;-73
2023/12/14 07:21:46;;;;;;;;;5.75;3.00;;;;;10.43;72.57;101437.88;5059654;28;45375;-75
2023/12/14 07:24:12;;;;;;;;;3.00;2.50;;;;;10.35;72.48;101429.94;5059022;28;45519;-75
2023/12/14 07:26:37;;;;;;;;;2.67;1.00;;;;;10.52;72.81;101461.59;5060592;28;45428;-77
2023/12/14 07:29:03;;;;;;;;;5.00;3.00;;;;;10.11;72.62;101403.38;5060245;28;45360;-79
2023/12/14 07:31:29;;;;;;;;;3.00;3.00;;;;;10.46;72.93;101456.25;5052615;28;45412;-76
2023/12/14 07:33:55;;;;;;;;;3.25;2.50;;;;;10.44;72.96;101458.00;5056387;28;45818;-75
2023/12/14 07:36:22;;;;;;;;;2.00;2.00;;;;;10.44;72.84;101468.47;5060112;28;45362;-75
2023/12/14 07:38:54;;;;;;;;;1.75;1.75;;;;;10.56;72.95;101486.97;5058802;28;45820;-74
2023/12/14 07:41:19;;;;;;;;;2.50;2.00;;;;;10.34;72.98;101463.94;5059377;28;45516;-74
2023/12/14 07:43:45;;;;;;;;;3.25;2.25;;;;;10.47;72.95;101485.97;5050335;28;45837;-76
2023/12/14 07:46:10;;;;;;;;;6.50;3.00;;;;;10.57;72.98;101508.81;5056347;28;45459;-77
2023/12/14 07:48:36;;;;;;;;;4.00;2.50;;;;;10.58;72.59;101513.16;5060295;28;45385;-76
2023/12/14 07:51:02;;;;;;;;;2.50;2.00;;;;;10.54;72.89;101511.38;5046362;28;45559;-75
2023/12/14 07:53:27;;;;;;;;;5.75;3.75;;;;;10.41;72.83;101486.72;5056609;28;46897;-76
2023/12/14 07:55:53;;;;;;;;;3.00;3.00;;;;;10.60;72.59;101532.41;5059083;28;45324;-74
2023/12/14 07:58:18;;;;;;;;;4.00;2.33;;;;;10.58;72.37;101534.13;5044827;28;45372;-73
2023/12/14 08:00:51;;;;;;;;;3.00;3.00;;;;;10.59;72.31;101534.16;5073476;28;45477;-72
2023/12/14 08:03:17;;;;;;;;;3.75;2.00;;;;;10.58;72.73;101548.13;5060797;28;45602;-73
2023/12/14 08:05:42;;;;;;;;;4.25;2.75;;;;;10.58;72.11;101548.13;5062509;28;45467;-76
2023/12/14 08:08:08;;;;;;;;;3.00;3.00;;;;;10.46;72.72;101534.81;5059155;28;45417;-77
2023/12/14 08:10:34;;;;;;;;;3.00;2.00;;;;;10.39;71.94;101512.00;5059168;28;46106;-75
2023/12/14 08:13:00;;;;;;;;;3.50;3.50;;;;;10.55;71.89;101557.66;5058896;28;45477;-75
2023/12/14 08:15:26;;;;;;;;;3.75;3.00;;;;;10.58;71.22;101563.84;5052367;28;45248;-76
2023/12/14 08:17:51;;;;;;;;;4.00;3.00;;;;;10.55;71.00;101574.25;5053033;28;45420;-73
2023/12/14 08:20:22;;;;;;;;;5.75;3.00;;;;;10.53;71.48;101573.34;5049992;28;45555;-72
2023/12/14 08:22:48;;;;;;;;;3.00;3.00;;;;;10.54;71.93;101587.34;5054298;28;46913;-76
2023/12/14 08:25:18;;;;;;;;;4.25;3.00;;;;;10.54;71.86;101593.47;5060673;28;46633;-75
2023/12/14 08:27:44;;;;;;;;;3.25;3.25;;;;;10.40;71.87;101581.88;5064642;28;45394;-73
2023/12/14 08:30:14;;;;;;;;;6.00;3.00;;;;;10.51;72.01;101596.03;5065019;28;45479;-74
2023/12/14 08:32:39;;;;;;;;;2.25;2.25;;;;;10.05;72.18;101519.31;5066261;28;46113;-75
2023/12/14 08:35:05;;;;;;;;;5.25;2.75;;;;;10.50;71.90;101617.84;5066199;28;45414;-77
2023/12/14 08:37:36;;;;;;;;;6.50;4.00;;;;;10.49;72.23;101612.59;5068835;28;45686;-75
2023/12/14 08:40:03;;;;;;;;;4.00;4.00;;;;;9.89;71.37;101514.66;5071938;28;45332;-75
2023/12/14 08:42:32;;;;;;;;;6.00;5.00;;;;;10.10;71.64;101563.88;5068033;28;45340;-76
2023/12/14 08:44:58;;;;;;;;;4.50;3.25;;;;;10.51;71.38;101642.28;5068399;28;45305;-76
2023/12/14 08:47:30;;;;;;;;;7.00;5.00;;;;;10.42;70.87;101623.78;5053273;28;45403;-76
2023/12/14 08:49:56;;;;;;;;;4.75;4.25;;;;;10.28;71.07;101615.69;5064459;28;45404;-77
2023/12/14 08:52:22;;;;;;;;;3.25;3.25;;;;;10.42;70.77;101640.41;5057851;28;46788;-75
2023/12/14 08:54:47;;;;;;;;;6.00;4.00;;;;;10.42;70.61;101640.41;5066171;28;45397;-75
2023/12/14 08:57:13;;;;;;;;;3.50;3.50;;;;;10.42;70.83;101649.97;5064667;28;45453;-75
2023/12/14 08:59:38;;;;;;;;;7.00;4.25;;;;;10.42;70.67;101645.66;5062686;28;45445;-73
2023/12/14 09:02:04;;;;;;;;;5.00;4.00;;;;;10.39;70.92;101659.56;5062732;28;45464;-79
2023/12/14 09:04:30;;;;;;;;;6.00;3.25;;;;;10.41;70.68;101662.19;5053990;28;45763;-74
2023/12/14 09:06:56;;;;;;;;;4.25;3.75;;;;;9.96;70.87;101589.81;5059668;28;45443;-73
2023/12/14 09:09:36;;;;;;;;;5.00;5.00;;;;;10.20;71.27;101620.78;5066176;28;45435;-72
2023/12/14 09:12:02;;;;;;;;;6.25;4.00;;;;;10.46;70.56;101671.00;5064040;28;46821;-77
2023/12/14 09:14:29;;;;;;;;;3.00;3.00;;;;;10.34;70.47;101653.34;5059948;28;45495;-74
2023/12/14 09:16:55;;;;;;;;;5.50;4.75;;;;;10.32;70.22;101664.66;5047525;28;45313;-77
2023/12/14 09:19:21;;;;;;;;;4.00;4.00;;;;;10.29;70.13;101662.88;5059553;28;45388;-76
2023/12/14 09:21:48;;;;;;;;;6.75;5.00;;;;;10.48;70.21;101700.75;5059765;28;46100;-77
2023/12/14 09:24:14;;;;;;;;;6.25;4.25;;;;;10.47;70.82;101703.34;5061188;28;45305;-79
2023/12/14 09:26:41;;;;;;;;;3.75;3.75;;;;;10.39;70.41;101688.38;5052876;28;45507;-77
2023/12/14 09:29:09;;;;;;;;;4.25;4.25;;;;;10.33;70.12;101674.28;5067772;28;45400;-82
2023/12/14 09:31:35;;;;;;;;;9.75;6.50;;;;;10.46;69.68;101691.97;5058731;28;46886;-78
2023/12/14 09:34:01;;;;;;;;;4.00;4.00;;;;;10.42;70.13;101692.78;5060626;28;45420;-78
2023/12/14 09:36:27;;;;;;;;;5.75;5.75;;;;;10.53;69.67;101716.53;5060116;28;45503;-79
2023/12/14 09:38:52;;;;;;;;;3.00;3.00;;;;;10.61;73.89;101715.81;5058987;28;45441;-79
2023/12/14 09:41:18;;;;;;;;;4.50;4.50;;;;;10.63;69.25;101701.84;5059992;28;45602;-79
2023/12/14 09:43:45;;;;;;;;;5.75;5.75;;;;;10.68;68.75;101721.16;5050771;28;45358;-76
2023/12/14 09:46:12;;;;;;;;;11.75;6.00;;;;;10.61;68.18;101714.94;5054493;28;45428;-78
2023/12/14 09:48:40;;;;;;;;;9.00;4.00;;;;;10.68;68.87;101723.78;5058563;28;45445;-76
2023/12/14 09:51:06;;;;;;;;;7.25;5.75;;;;;10.69;68.47;101739.53;5046257;28;46266;-78
2023/12/14 09:53:32;;;;;;;;;7.25;5.00;;;;;10.22;68.91;101660.97;5066779;28;45294;-78
2023/12/14 09:55:57;;;;;;;;;4.25;4.00;;;;;10.51;67.61;101713.91;5071279;28;44688;-76
2023/12/14 09:58:33;;;;;;;;;8.50;4.25;;;;;10.57;67.66;101718.38;5068648;28;45187;-77
2023/12/14 10:01:00;;;;;;;;;4.50;4.50;;;;;10.77;66.90;101756.28;5066828;28;45442;-77
2023/12/14 10:03:32;;;;;;;;;3.75;3.00;;;;;10.45;67.19;101684.97;5064640;28;45592;-77
2023/12/14 10:06:01;;;;;;;;;3.25;3.25;;;;;10.56;71.05;101667.72;5061502;28;45420;-77
2023/12/14 10:08:31;;;;;;;;;8.25;5.75;;;;;10.68;66.44;101700.19;5061193;28;45393;-77
2023/12/14 10:10:56;;;;;;;;;4.50;4.50;;;;;10.55;65.55;101679.03;5059416;28;46564;-77
2023/12/14 10:13:37;;;;;;;;;5.25;5.25;;;;;10.55;65.54;101691.25;5057553;28;45266;-78
2023/12/14 10:16:03;;;;;;;;;6.67;4.00;;;;;10.73;65.41;101719.53;5042037;28;45413;-78
2023/12/14 10:18:34;;;;;;;;;5.25;5.25;;;;;11.16;65.24;101776.16;5053002;28;45297;-77
2023/12/14 10:20:59;;;;;;;;;4.75;4.50;;;;;11.04;64.79;101749.75;5061499;28;46161;-78
2023/12/14 10:23:27;;;;;;;;;6.00;6.00;;;;;11.11;65.17;101743.75;5061500;28;45670;-80
2023/12/14 10:25:57;;;;;;;;;5.75;4.50;;;;;11.39;64.38;101775.63;5061557;28;45564;-75
2023/12/14 10:28:24;;;;;;;;;9.25;5.75;;;;;11.73;63.77;101782.25;5062191;28;45426;-77
2023/12/14 10:30:49;;;;;;;;;5.75;5.00;;;;;12.09;62.73;101760.00;5061278;28;46460;-77
2023/12/14 10:33:16;;;;;;;;;5.50;4.50;;;;;12.58;61.87;101799.09;5060855;28;45496;-78
2023/12/14 10:35:43;;;;;;;;;9.00;5.00;;;;;12.41;60.65;101759.47;5062657;28;45424;-82
2023/12/14 10:38:11;;;;;;;;;5.00;3.33;;;;;12.58;60.92;101802.59;5070711;28;45384;-84
2023/12/14 10:40:41;;;;;;;;;6.67;4.33;;;;;12.36;61.73;101782.19;5069366;28;46063;-87
2023/12/14 10:43:09;;;;;;;;;6.00;4.33;;;;;12.37;61.20;101812.88;5069861;28;44870;-85
2023/12/14 10:45:37;;;;;;;;;20.00;16.25;;;;;12.22;61.24;101819.72;5053867;28;44773;-87
2023/12/14 10:48:03;;;;;;;;;16.00;15.75;;;;;12.04;62.07;101819.47;5067746;28;45358;-84
2023/12/14 10:50:30;;;;;;;;;10.50;9.75;;;;;11.75;61.88;101793.66;5060910;28;46871;-78
2023/12/14 10:53:09;;;;;;;;;11.00;6.67;;;;;11.82;61.68;101839.25;5062908;28;45465;-76
2023/12/14 10:55:45;;;;;;;;;8.33;6.67;;;;;11.66;61.79;101823.28;5068736;27;45562;-75
2023/12/14 10:58:12;;;;;;;;;5.67;4.67;;;;;11.71;62.49;101838.22;5062292;28;45785;-82
2023/12/14 11:00:38;;;;;;;;;8.00;4.67;;;;;11.43;62.29;101807.16;5062433;28;45423;-85
2023/12/14 11:03:05;;;;;;;;;5.00;5.00;;;;;11.48;62.82;101822.09;5071025;28;44788;-79
2023/12/14 11:05:34;;;;;;;;;5.00;5.00;;;;;11.57;62.30;101851.13;5065543;28;45493;-81
2023/12/14 11:08:12;;;;;;;;;4.33;4.33;;;;;11.51;62.70;101849.28;5066894;28;45631;-78
2023/12/14 11:10:52;;;;;;;;;7.67;5.33;;;;;11.09;64.25;101792.66;5065730;28;45545;-79
2023/12/14 11:13:18;;;;;;;;;3.33;2.00;;;;;11.22;62.51;101819.94;5080291;28;45327;-80
2023/12/14 11:15:52;;;;;;;;;5.67;5.00;;;;;11.20;63.09;101829.50;5075945;27;45574;-75
2023/12/14 11:18:21;;;;;;;;;7.25;7.25;;;;;11.22;62.65;101836.59;5076108;27;45440;-78
2023/12/14 11:20:53;;;;;;;;;6.75;6.75;;;;;11.37;62.41;101870.03;5076149;28;45641;-83
2023/12/14 11:23:25;;;;;;;;;8.00;5.25;;;;;11.06;62.63;101817.91;5076054;28;44793;-77